Time,TemperatureF,DewpointF,PressureIn,WindDirection,WindDirectionDegrees,WindSpeedMPH,WindSpeedGustMPH,Humidity,HourlyPrecipIn,Conditions,Clouds,dailyrainin,SoftwareType,DateUTC
2013-03-08 00:01:00,60.6,26.5,29.88,NW,315,0.0,0.0,27,0.00,,---,0.00,VWS V14.01,2013-03-08 07:01:00,
2013-03-08 00:06:00,60.8,25.7,29.88,NNW,338,0.0,0.0,26,0.00,,---,0.00,VWS V14.01,2013-03-08 07:06:00,
2013-03-08 00:11:00,60.8,25.7,29.88,North,0,0.0,0.0,26,0.00,,---,0.00,VWS V14.01,2013-03-08 07:11:00,
2013-03-08 00:16:00,60.4,26.3,29.88,East,90,0.0,0.0,27,0.00,,---,0.00,VWS V14.01,2013-03-08 07:16:00,
2013-03-08 00:21:00,60.3,26.2,29.88,East,90,0.0,0.0,27,0.00,,---,0.00,VWS V14.01,2013-03-08 07:21:00,
2013-03-08 00:26:00,60.1,26.0,29.88,ENE,68,0.0,0.0,27,0.00,,---,0.00,VWS V14.01,2013-03-08 07:26:00,
2013-03-08 00:31:00,59.9,25.9,29.88,ENE,68,0.0,0.0,27,0.00,,---,0.00,VWS V14.01,2013-03-08 07:31:00,
2013-03-08 00:36:00,59.7,25.7,29.88,ENE,68,0.0,0.0,27,0.00,,---,0.00,VWS V14.01,2013-03-08 07:36:00,
2013-03-08 00:41:00,59.4,25.4,29.88,ENE,68,0.0,0.0,27,0.00,,---,0.00,VWS V14.01,2013-03-08 07:41:00,
2013-03-08 00:46:00,59.4,25.4,29.88,ENE,68,0.0,0.0,27,0.00,,---,0.00,VWS V14.01,2013-03-08 07:46:00,
2013-03-08 00:51:00,59.4,25.4,29.88,ENE,68,0.0,0.0,27,0.00,,---,0.00,VWS V14.01,2013-03-08 07:51:00,
2013-03-08 00:56:00,59.2,25.2,29.88,ENE,68,0.0,0.0,27,0.00,,---,0.00,VWS V14.01,2013-03-08 07:56:00,
2013-03-08 01:01:00,59.2,25.2,29.88,ENE,68,0.0,0.0,27,0.00,,---,0.00,VWS V14.01,2013-03-08 08:01:00,
2013-03-08 01:06:00,59.2,25.2,29.88,East,90,0.0,0.0,27,0.00,,---,0.00,VWS V14.01,2013-03-08 08:06:00,
2013-03-08 01:11:00,59.2,26.1,29.88,East,90,0.0,0.0,28,0.00,,---,0.00,VWS V14.01,2013-03-08 08:11:00,
2013-03-08 01:16:00,59.2,26.1,29.88,NE,45,0.0,0.0,28,0.00,,---,0.00,VWS V14.01,2013-03-08 08:16:00,
2013-03-08 01:22:00,59.4,26.3,29.88,North,0,0.0,0.0,28,0.00,,---,0.00,VWS V14.01,2013-03-08 08:22:00,
2013-03-08 01:27:00,59.4,26.3,29.88,ENE,68,0.0,0.0,28,0.00,,---,0.00,VWS V14.01,2013-03-08 08:27:00,
2013-03-08 01:32:00,59.4,26.3,29.88,ENE,68,0.0,0.0,28,0.00,,---,0.00,VWS V14.01,2013-03-08 08:32:00,
2013-03-08 01:37:00,59.2,26.1,29.88,East,90,0.0,0.0,28,0.00,,---,0.00,VWS V14.01,2013-03-08 08:37:00,
2013-03-08 01:42:00,59.0,26.0,29.88,East,90,0.0,0.0,28,0.00,,---,0.00,VWS V14.01,2013-03-08 08:42:00,
2013-03-08 01:47:00,59.0,26.0,29.88,NW,315,0.0,0.0,28,0.00,,---,0.00,VWS V14.01,2013-03-08 08:47:00,
2013-03-08 01:52:00,59.0,26.0,29.88,NE,45,0.0,0.0,28,0.00,,---,0.00,VWS V14.01,2013-03-08 08:52:00,
2013-03-08 01:57:00,58.8,26.6,29.88,ENE,68,0.0,0.0,29,0.00,,---,0.00,VWS V14.01,2013-03-08 08:57:00,
2013-03-08 02:02:00,58.6,27.3,29.88,ENE,68,0.0,0.0,30,0.00,,---,0.00,VWS V14.01,2013-03-08 09:02:00,
2013-03-08 02:07:00,58.5,27.2,29.88,NNW,338,0.0,0.0,30,0.00,,---,0.00,VWS V14.01,2013-03-08 09:07:00,
2013-03-08 02:12:00,58.6,27.3,29.85,West,270,0.0,0.0,30,0.00,,---,0.00,VWS V14.01,2013-03-08 09:12:00,
2013-03-08 02:17:00,58.6,27.3,29.85,NNW,338,0.0,0.0,30,0.00,,---,0.00,VWS V14.01,2013-03-08 09:17:00,
2013-03-08 02:22:00,58.6,27.3,29.85,NNW,338,0.0,0.0,30,0.00,,---,0.00,VWS V14.01,2013-03-08 09:22:00,
2013-03-08 02:27:00,58.6,27.3,29.85,NNW,338,0.0,0.0,30,0.00,,---,0.00,VWS V14.01,2013-03-08 09:27:00,
2013-03-08 02:32:00,58.6,27.3,29.85,NNW,338,0.0,0.0,30,0.00,,---,0.00,VWS V14.01,2013-03-08 09:32:00,
2013-03-08 02:37:00,58.6,28.1,29.85,South,180,0.0,0.0,31,0.00,,---,0.00,VWS V14.01,2013-03-08 09:37:00,
2013-03-08 02:42:00,58.6,28.1,29.85,SW,225,0.0,0.0,31,0.00,,---,0.00,VWS V14.01,2013-03-08 09:42:00,
2013-03-08 02:48:00,58.8,28.3,29.85,SW,225,0.0,0.0,31,0.00,,---,0.00,VWS V14.01,2013-03-08 09:48:00,
2013-03-08 02:53:00,59.0,28.4,29.85,SW,225,0.0,0.0,31,0.00,,---,0.00,VWS V14.01,2013-03-08 09:53:00,
2013-03-08 02:58:00,59.2,28.6,29.85,SW,225,0.0,0.0,31,0.00,,---,0.00,VWS V14.01,2013-03-08 09:58:00,
2013-03-08 03:03:00,59.4,28.7,29.85,SW,225,0.0,0.0,31,0.00,,---,0.00,VWS V14.01,2013-03-08 10:03:00,
2013-03-08 03:08:00,59.5,28.9,29.85,SSW,202,0.0,0.0,31,0.00,,---,0.00,VWS V14.01,2013-03-08 10:08:00,
2013-03-08 03:13:00,59.5,28.9,29.85,SW,225,0.0,0.0,31,0.00,,---,0.00,VWS V14.01,2013-03-08 10:13:00,
2013-03-08 03:18:00,59.5,28.9,29.85,SE,135,0.0,0.0,31,0.00,,---,0.00,VWS V14.01,2013-03-08 10:18:00,
2013-03-08 03:23:00,59.5,28.9,29.85,South,180,0.0,0.0,31,0.00,,---,0.00,VWS V14.01,2013-03-08 10:23:00,
2013-03-08 03:28:00,59.4,28.7,29.82,SE,135,0.0,0.0,31,0.00,,---,0.00,VWS V14.01,2013-03-08 10:28:00,
2013-03-08 03:33:00,59.4,28.7,29.82,South,180,0.0,0.0,31,0.00,,---,0.00,VWS V14.01,2013-03-08 10:33:00,
2013-03-08 03:38:00,59.5,28.9,29.82,South,180,0.0,0.0,31,0.00,,---,0.00,VWS V14.01,2013-03-08 10:38:00,
2013-03-08 03:43:00,59.5,28.9,29.82,South,180,0.0,0.0,31,0.00,,---,0.00,VWS V14.01,2013-03-08 10:43:00,
2013-03-08 03:49:00,59.7,29.1,29.82,SSW,202,0.0,0.0,31,0.00,,---,0.00,VWS V14.01,2013-03-08 10:49:00,
2013-03-08 03:54:00,59.9,29.2,29.82,SW,225,0.0,0.0,31,0.00,,---,0.00,VWS V14.01,2013-03-08 10:54:00,
2013-03-08 03:59:00,60.1,29.4,29.82,WNW,292,1.3,1.3,31,0.00,,---,0.00,VWS V14.01,2013-03-08 10:59:00,
2013-03-08 04:04:00,60.3,29.5,29.82,South,180,0.0,0.0,31,0.00,,---,0.00,VWS V14.01,2013-03-08 11:04:00,
2013-03-08 04:09:00,60.4,29.7,29.82,SSE,158,2.2,2.2,31,0.00,,---,0.00,VWS V14.01,2013-03-08 11:09:00,
2013-03-08 04:14:00,60.4,29.7,29.82,SE,135,0.0,0.0,31,0.00,,---,0.00,VWS V14.01,2013-03-08 11:14:00,
2013-03-08 04:19:00,60.6,29.8,29.82,South,180,2.7,2.7,31,0.00,,---,0.00,VWS V14.01,2013-03-08 11:19:00,
2013-03-08 04:24:00,60.8,30.0,29.82,South,180,1.3,1.3,31,0.00,,---,0.00,VWS V14.01,2013-03-08 11:24:00,
2013-03-08 04:29:00,60.8,30.0,29.82,WSW,248,0.0,0.9,31,0.00,,---,0.00,VWS V14.01,2013-03-08 11:29:00,
2013-03-08 04:34:00,60.8,30.0,29.82,SE,135,0.0,2.7,31,0.00,,---,0.00,VWS V14.01,2013-03-08 11:34:00,
2013-03-08 04:39:00,60.8,30.0,29.82,SW,225,0.9,0.9,31,0.00,,---,0.00,VWS V14.01,2013-03-08 11:39:00,
2013-03-08 04:44:00,60.6,30.6,29.82,WSW,248,0.0,1.3,32,0.00,,---,0.00,VWS V14.01,2013-03-08 11:44:00,
2013-03-08 04:49:00,60.6,30.6,29.82,SSW,202,0.0,2.2,32,0.00,,---,0.00,VWS V14.01,2013-03-08 11:49:00,
2013-03-08 04:54:00,60.6,30.6,29.82,WSW,248,0.0,2.7,32,0.00,,---,0.00,VWS V14.01,2013-03-08 11:54:00,
2013-03-08 04:59:00,60.4,31.2,29.82,WSW,248,3.4,3.4,33,0.00,,---,0.00,VWS V14.01,2013-03-08 11:59:00,
2013-03-08 05:05:00,60.4,31.2,29.82,SW,225,0.9,0.9,33,0.00,,---,0.00,VWS V14.01,2013-03-08 12:05:00,
2013-03-08 05:10:00,60.3,31.1,29.82,SW,225,4.0,4.0,33,0.00,,---,0.00,VWS V14.01,2013-03-08 12:10:00,
2013-03-08 05:15:00,60.3,31.8,29.82,SW,225,1.3,1.3,34,0.00,,---,0.00,VWS V14.01,2013-03-08 12:15:00,
2013-03-08 05:20:00,60.1,31.6,29.82,SW,225,0.0,0.0,34,0.00,,---,0.00,VWS V14.01,2013-03-08 12:20:00,
2013-03-08 05:25:00,60.1,31.6,29.82,WSW,248,0.0,0.0,34,0.00,,---,0.00,VWS V14.01,2013-03-08 12:25:00,
2013-03-08 05:30:00,60.1,31.6,29.82,SSW,202,0.0,0.0,34,0.00,,---,0.00,VWS V14.01,2013-03-08 12:30:00,
2013-03-08 05:35:00,60.1,31.6,29.82,SSW,202,0.0,0.0,34,0.00,,---,0.00,VWS V14.01,2013-03-08 12:35:00,
2013-03-08 05:40:00,60.1,31.6,29.82,SE,135,0.0,0.0,34,0.00,,---,0.00,VWS V14.01,2013-03-08 12:40:00,
2013-03-08 05:45:00,60.3,31.8,29.82,SSW,202,0.0,0.0,34,0.00,,---,0.00,VWS V14.01,2013-03-08 12:45:00,
2013-03-08 05:50:00,60.4,32.0,29.82,SW,225,0.0,0.0,34,0.00,,---,0.00,VWS V14.01,2013-03-08 12:50:00,
2013-03-08 05:55:00,60.6,32.1,29.82,WSW,248,0.0,0.0,34,0.00,,---,0.00,VWS V14.01,2013-03-08 12:55:00,
2013-03-08 06:00:00,60.6,32.1,29.82,SW,225,3.8,3.8,34,0.00,,---,0.00,VWS V14.01,2013-03-08 13:00:00,
2013-03-08 06:05:00,60.6,32.1,29.82,SE,135,2.7,2.7,34,0.00,,---,0.00,VWS V14.01,2013-03-08 13:05:00,
2013-03-08 06:10:00,60.6,32.1,29.82,SW,225,0.0,1.6,34,0.00,,---,0.00,VWS V14.01,2013-03-08 13:10:00,
2013-03-08 06:15:00,60.6,32.1,29.82,West,270,0.0,0.0,34,0.00,,---,0.00,VWS V14.01,2013-03-08 13:15:00,
2013-03-08 06:20:00,60.6,32.1,29.82,SW,225,0.0,0.0,34,0.00,,---,0.00,VWS V14.01,2013-03-08 13:20:00,
2013-03-08 06:25:00,60.6,32.8,29.82,SSW,202,1.3,1.6,35,0.00,,---,0.00,VWS V14.01,2013-03-08 13:25:00,
2013-03-08 06:30:00,60.8,32.3,29.82,SSW,202,2.2,2.2,34,0.00,,---,0.00,VWS V14.01,2013-03-08 13:30:00,
2013-03-08 06:35:00,60.8,33.0,29.82,SSE,158,0.0,2.5,35,0.00,,---,0.00,VWS V14.01,2013-03-08 13:35:00,
2013-03-08 06:40:00,60.8,33.0,29.82,SSW,202,2.2,2.2,35,0.00,,---,0.00,VWS V14.01,2013-03-08 13:40:00,
2013-03-08 07:08:00,60.6,33.5,29.85,SSW,202,0.0,2.7,36,0.00,,---,0.00,VWS V14.01,2013-03-08 14:08:00,
2013-03-08 07:13:00,60.6,34.2,29.82,SSW,202,3.1,5.6,37,0.00,,---,0.00,VWS V14.01,2013-03-08 14:13:00,
2013-03-08 07:18:00,60.4,33.4,29.82,SSW,202,0.0,0.0,36,0.00,,---,0.00,VWS V14.01,2013-03-08 14:18:00,
2013-03-08 07:23:00,60.4,34.1,29.82,SSE,158,4.3,4.3,37,0.00,,---,0.00,VWS V14.01,2013-03-08 14:23:00,
2013-03-08 07:28:00,60.4,34.1,29.85,West,270,6.3,6.3,37,0.00,,---,0.00,VWS V14.01,2013-03-08 14:28:00,
2013-03-08 07:33:00,60.4,34.1,29.85,WSW,248,0.0,0.0,37,0.00,,---,0.00,VWS V14.01,2013-03-08 14:33:00,
2013-03-08 07:38:00,60.4,34.1,29.85,WSW,248,9.4,9.4,37,0.00,,---,0.00,VWS V14.01,2013-03-08 14:38:00,
2013-03-08 07:43:00,60.4,34.7,29.82,WSW,248,0.0,3.8,38,0.00,,---,0.00,VWS V14.01,2013-03-08 14:43:00,
2013-03-08 07:48:00,60.3,35.2,29.82,SW,225,5.4,5.4,39,0.00,,---,0.00,VWS V14.01,2013-03-08 14:48:00,
2013-03-08 07:53:00,60.3,35.2,29.82,SSW,202,0.0,1.1,39,0.00,,---,0.00,VWS V14.01,2013-03-08 14:53:00,
2013-03-08 07:58:00,60.1,35.1,29.85,SW,225,1.1,1.1,39,0.00,,---,0.00,VWS V14.01,2013-03-08 14:58:00,
2013-03-08 08:03:00,60.1,35.1,29.85,SW,225,3.8,3.8,39,0.00,,---,0.00,VWS V14.01,2013-03-08 15:03:00,
2013-03-08 08:08:00,60.1,35.7,29.85,SW,225,3.6,3.6,40,0.00,,---,0.00,VWS V14.01,2013-03-08 15:08:00,
2013-03-08 08:13:00,60.1,35.7,29.85,ESE,112,0.0,0.0,40,0.00,,---,0.00,VWS V14.01,2013-03-08 15:13:00,
2013-03-08 08:18:00,60.1,36.3,29.85,SSE,158,0.0,1.6,41,0.00,,---,0.00,VWS V14.01,2013-03-08 15:18:00,
2013-03-08 08:24:00,60.1,36.9,29.85,SSE,158,4.9,4.9,42,0.00,,---,0.00,VWS V14.01,2013-03-08 15:24:00,
2013-03-08 08:29:00,59.9,38.5,29.85,SW,225,1.1,5.4,45,0.00,,---,0.00,VWS V14.01,2013-03-08 15:29:00,
2013-03-08 08:34:00,59.5,38.2,29.85,SSW,202,4.0,4.0,45,0.00,,---,0.00,VWS V14.01,2013-03-08 15:34:00,
2013-03-08 08:39:00,59.5,38.2,29.85,SSE,158,2.9,2.9,45,0.00,,---,0.00,VWS V14.01,2013-03-08 15:39:00,
2013-03-08 08:44:00,59.5,38.2,29.85,SW,225,3.8,3.8,45,0.00,,---,0.00,VWS V14.01,2013-03-08 15:44:00,
2013-03-08 08:49:00,59.7,37.8,29.85,SE,135,0.0,3.1,44,0.00,,---,0.00,VWS V14.01,2013-03-08 15:49:00,
2013-03-08 08:54:00,59.7,38.4,29.85,South,180,1.3,2.5,45,0.00,,---,0.00,VWS V14.01,2013-03-08 15:54:00,
2013-03-08 08:59:00,59.9,38.0,29.85,South,180,3.1,3.1,44,0.00,,---,0.00,VWS V14.01,2013-03-08 15:59:00,
2013-03-08 09:04:00,60.1,38.1,29.85,SSW,202,5.8,5.8,44,0.00,,---,0.00,VWS V14.01,2013-03-08 16:04:00,
2013-03-08 09:09:00,60.3,38.8,29.85,SE,135,5.4,5.8,45,0.00,,---,0.00,VWS V14.01,2013-03-08 16:09:00,
2013-03-08 09:14:00,60.6,38.6,29.82,West,270,4.7,4.7,44,0.00,,---,0.00,VWS V14.01,2013-03-08 16:14:00,
2013-03-08 09:19:00,61.0,38.9,29.82,WSW,248,5.8,5.8,44,0.00,,---,0.00,VWS V14.01,2013-03-08 16:19:00,
2013-03-08 09:24:00,61.2,38.5,29.82,SE,135,3.1,3.1,43,0.00,,---,0.00,VWS V14.01,2013-03-08 16:24:00,
2013-03-08 09:29:00,61.3,38.1,29.82,South,180,8.1,8.1,42,0.00,,---,0.00,VWS V14.01,2013-03-08 16:29:00,
2013-03-08 09:34:00,61.3,38.1,29.82,West,270,2.5,2.7,42,0.00,,---,0.00,VWS V14.01,2013-03-08 16:34:00,
2013-03-08 09:39:00,61.3,38.1,29.82,SSW,202,0.0,0.0,42,0.00,,---,0.00,VWS V14.01,2013-03-08 16:39:00,
2013-03-08 09:45:00,61.0,37.8,29.82,SSW,202,4.9,4.9,42,0.00,,---,0.00,VWS V14.01,2013-03-08 16:45:00,
2013-03-08 09:50:00,61.0,37.8,29.82,South,180,2.5,2.5,42,0.00,,---,0.00,VWS V14.01,2013-03-08 16:50:00,
2013-03-08 09:55:00,61.0,37.8,29.82,South,180,4.3,4.3,42,0.00,,---,0.00,VWS V14.01,2013-03-08 16:55:00,
2013-03-08 10:00:00,61.2,37.9,29.82,SW,225,6.5,6.5,42,0.00,,---,0.00,VWS V14.01,2013-03-08 17:00:00,
2013-03-08 10:05:00,61.5,39.4,29.82,WSW,248,1.1,1.1,44,0.00,,---,0.00,VWS V14.01,2013-03-08 17:05:00,
2013-03-08 10:10:00,61.0,39.5,29.82,WSW,248,0.9,3.8,45,0.00,,---,0.00,VWS V14.01,2013-03-08 17:10:00,
2013-03-08 10:15:00,60.4,41.7,29.85,SW,225,6.3,6.3,50,0.00,,---,0.00,VWS V14.01,2013-03-08 17:15:00,
2013-03-08 10:20:00,59.7,42.1,29.85,WSW,248,0.0,0.0,52,0.00,,---,0.00,VWS V14.01,2013-03-08 17:20:00,
2013-03-08 10:25:00,59.5,41.9,29.85,WSW,248,9.8,9.8,52,0.00,,---,0.00,VWS V14.01,2013-03-08 17:25:00,
2013-03-08 10:30:00,59.4,42.2,29.85,SW,225,3.4,5.8,53,0.00,,---,0.00,VWS V14.01,2013-03-08 17:30:00,
2013-03-08 10:35:00,59.4,43.2,29.85,WSW,248,6.5,6.5,55,0.00,,---,0.00,VWS V14.01,2013-03-08 17:35:00,
2013-03-08 10:40:00,59.9,44.2,29.85,SW,225,3.6,3.6,56,0.00,,---,0.00,VWS V14.01,2013-03-08 17:40:00,
2013-03-08 10:45:00,59.9,46.0,29.85,West,270,2.9,6.5,60,0.00,,---,0.00,VWS V14.01,2013-03-08 17:45:00,
2013-03-08 10:50:00,59.7,45.4,29.85,SW,225,0.0,3.8,59,0.00,,---,0.00,VWS V14.01,2013-03-08 17:50:00,
2013-03-08 10:55:00,59.5,46.1,29.85,SSE,158,4.9,4.9,61,0.00,,---,0.00,VWS V14.01,2013-03-08 17:55:00,
2013-03-08 11:00:00,59.5,46.1,29.85,West,270,1.3,1.3,61,0.00,,---,0.00,VWS V14.01,2013-03-08 18:00:00,
2013-03-08 11:05:00,60.1,45.7,29.85,West,270,5.4,5.4,59,0.00,,---,0.00,VWS V14.01,2013-03-08 18:05:00,
2013-03-08 11:10:00,60.4,45.6,29.85,SW,225,7.6,7.6,58,0.00,,---,0.00,VWS V14.01,2013-03-08 18:10:00,
2013-03-08 11:15:00,60.6,45.8,29.85,West,270,7.4,7.4,58,0.00,,---,0.00,VWS V14.01,2013-03-08 18:15:00,
2013-03-08 11:20:00,61.3,45.5,29.85,WSW,248,0.0,0.0,56,0.00,,---,0.00,VWS V14.01,2013-03-08 18:20:00,
2013-03-08 11:25:00,62.1,45.7,29.85,WSW,248,2.2,2.2,55,0.00,,---,0.00,VWS V14.01,2013-03-08 18:25:00,
2013-03-08 11:30:00,63.5,46.6,29.85,SW,225,2.2,2.2,54,0.00,,---,0.00,VWS V14.01,2013-03-08 18:30:00,
2013-03-08 11:35:00,63.5,45.6,29.85,WSW,248,3.6,3.6,52,0.00,,---,0.00,VWS V14.01,2013-03-08 18:35:00,
2013-03-08 11:40:00,62.6,44.8,29.85,SW,225,0.0,0.0,52,0.00,,---,0.00,VWS V14.01,2013-03-08 18:40:00,
2013-03-08 11:45:00,62.6,44.8,29.82,WNW,292,0.0,2.7,52,0.00,,---,0.00,VWS V14.01,2013-03-08 18:45:00,
2013-03-08 11:50:00,63.3,44.9,29.82,West,270,0.0,3.4,51,0.00,,---,0.00,VWS V14.01,2013-03-08 18:50:00,
2013-03-08 11:55:00,64.2,44.7,29.82,NW,315,5.6,5.6,49,0.00,,---,0.00,VWS V14.01,2013-03-08 18:55:00,
2013-03-08 12:00:00,63.1,42.6,29.82,WSW,248,0.9,0.9,47,0.00,,---,0.00,VWS V14.01,2013-03-08 19:00:00,
2013-03-08 12:05:00,62.4,43.5,29.82,West,270,0.0,0.0,50,0.00,,---,0.00,VWS V14.01,2013-03-08 19:05:00,
2013-03-08 12:11:00,61.3,43.6,29.82,SW,225,3.8,3.8,52,0.00,,---,0.00,VWS V14.01,2013-03-08 19:11:00,
2013-03-08 12:16:00,60.4,43.2,29.82,SW,225,0.0,0.0,53,0.00,,---,0.00,VWS V14.01,2013-03-08 19:16:00,
2013-03-08 12:21:00,60.8,44.5,29.82,WSW,248,2.7,6.3,55,0.00,,---,0.00,VWS V14.01,2013-03-08 19:21:00,
2013-03-08 12:26:00,60.6,42.9,29.82,SW,225,7.4,7.8,52,0.00,,---,0.00,VWS V14.01,2013-03-08 19:26:00,
2013-03-08 12:31:00,59.7,44.0,29.82,South,180,7.6,7.6,56,0.00,,---,0.00,VWS V14.01,2013-03-08 19:31:00,
2013-03-08 12:36:00,59.2,44.9,29.82,WSW,248,0.0,0.0,59,0.00,,---,0.00,VWS V14.01,2013-03-08 19:36:00,
2013-03-08 12:41:00,59.2,44.9,29.82,WSW,248,6.3,6.3,59,0.00,,---,0.00,VWS V14.01,2013-03-08 19:41:00,
2013-03-08 12:46:00,59.4,45.5,29.82,WSW,248,6.9,6.9,60,0.00,,---,0.00,VWS V14.01,2013-03-08 19:46:00,
2013-03-08 12:51:00,60.3,45.9,29.82,WSW,248,1.3,1.3,59,0.00,,---,0.00,VWS V14.01,2013-03-08 19:51:00,
2013-03-08 12:56:00,61.2,45.4,29.79,SW,225,3.8,3.8,56,0.00,,---,0.00,VWS V14.01,2013-03-08 19:56:00,
2013-03-08 13:01:00,61.2,44.4,29.79,SW,225,0.0,2.7,54,0.00,,---,0.00,VWS V14.01,2013-03-08 20:01:00,
2013-03-08 13:06:00,61.2,44.4,29.79,SW,225,3.8,3.8,54,0.00,,---,0.00,VWS V14.01,2013-03-08 20:06:00,
2013-03-08 13:11:00,61.7,45.4,29.79,South,180,0.0,3.4,55,0.00,,---,0.00,VWS V14.01,2013-03-08 20:11:00,
2013-03-08 13:16:00,62.6,44.2,29.79,SW,225,0.9,0.9,51,0.00,,---,0.00,VWS V14.01,2013-03-08 20:16:00,
2013-03-08 13:21:00,63.1,43.2,29.79,ESE,112,0.0,0.0,48,0.00,,---,0.00,VWS V14.01,2013-03-08 20:21:00,
2013-03-08 13:27:00,63.1,42.0,29.79,SSE,158,1.3,1.3,46,0.00,,---,0.00,VWS V14.01,2013-03-08 20:27:00,
2013-03-08 13:32:00,63.3,41.1,29.79,SW,225,2.7,8.5,44,0.00,,---,0.00,VWS V14.01,2013-03-08 20:32:00,
2013-03-08 13:37:00,63.5,40.6,29.79,WSW,248,4.7,4.7,43,0.00,,---,0.00,VWS V14.01,2013-03-08 20:37:00,
2013-03-08 13:42:00,64.8,41.2,29.79,SW,225,3.4,3.6,42,0.00,,---,0.00,VWS V14.01,2013-03-08 20:42:00,
2013-03-08 13:47:00,65.5,41.2,29.79,SSE,158,0.9,1.1,41,0.00,,---,0.00,VWS V14.01,2013-03-08 20:47:00,
2013-03-08 13:52:00,66.2,40.5,29.79,SW,225,0.9,1.6,39,0.00,,---,0.00,VWS V14.01,2013-03-08 20:52:00,
2013-03-08 13:57:00,66.2,39.2,29.76,SW,225,2.9,3.4,37,0.00,,---,0.00,VWS V14.01,2013-03-08 20:57:00,
2013-03-08 14:02:00,65.8,39.5,29.76,SSW,202,0.0,1.1,38,0.00,,---,0.00,VWS V14.01,2013-03-08 21:02:00,
2013-03-08 14:07:00,65.5,39.2,29.76,WSW,248,2.9,3.1,38,0.00,,---,0.00,VWS V14.01,2013-03-08 21:07:00,
2013-03-08 14:12:00,64.9,38.8,29.76,South,180,4.9,6.3,38,0.00,,---,0.00,VWS V14.01,2013-03-08 21:12:00,
2013-03-08 14:17:00,64.2,37.4,29.76,SSW,202,7.4,7.4,37,0.00,,---,0.00,VWS V14.01,2013-03-08 21:17:00,
2013-03-08 14:22:00,63.5,37.5,29.76,WSW,248,6.5,6.9,38,0.00,,---,0.00,VWS V14.01,2013-03-08 21:22:00,
2013-03-08 14:27:00,60.8,42.1,29.79,SSE,158,1.6,11.2,50,0.00,,---,0.00,VWS V14.01,2013-03-08 21:27:00,
2013-03-08 14:32:00,58.6,43.0,29.79,SW,225,9.4,9.4,56,0.00,,---,0.00,VWS V14.01,2013-03-08 21:32:00,
2013-03-08 14:37:00,57.9,42.8,29.79,SW,225,8.1,8.1,57,0.00,,---,0.00,VWS V14.01,2013-03-08 21:37:00,
2013-03-08 14:42:00,57.0,43.7,29.79,SW,225,8.5,8.5,61,0.00,,---,0.00,VWS V14.01,2013-03-08 21:42:00,
2013-03-08 14:47:00,56.7,43.8,29.79,South,180,6.7,8.7,62,0.00,,---,0.00,VWS V14.01,2013-03-08 21:47:00,
2013-03-08 14:52:00,56.7,43.0,29.79,SW,225,8.1,8.1,60,0.00,,---,0.00,VWS V14.01,2013-03-08 21:52:00,
2013-03-08 14:57:00,56.5,42.3,29.79,South,180,3.6,4.0,59,0.00,,---,0.00,VWS V14.01,2013-03-08 21:57:00,
2013-03-08 15:02:00,57.2,42.6,29.79,SW,225,0.9,2.9,58,0.00,,---,0.00,VWS V14.01,2013-03-08 22:02:00,
2013-03-08 15:07:00,57.7,41.7,29.79,SW,225,6.0,6.9,55,0.00,,---,0.00,VWS V14.01,2013-03-08 22:07:00,
2013-03-08 15:12:00,58.1,41.1,29.79,SSE,158,1.3,1.3,53,0.00,,---,0.00,VWS V14.01,2013-03-08 22:12:00,
2013-03-08 15:18:00,58.6,40.6,29.79,SW,225,6.0,6.0,51,0.00,,---,0.00,VWS V14.01,2013-03-08 22:18:00,
2013-03-08 15:23:00,59.5,40.4,29.79,SW,225,4.3,5.6,49,0.00,,---,0.00,VWS V14.01,2013-03-08 22:23:00,
2013-03-08 15:28:00,60.6,39.2,29.79,SW,225,0.0,7.6,45,0.00,,---,0.00,VWS V14.01,2013-03-08 22:28:00,
2013-03-08 15:33:00,60.8,38.8,29.79,SSE,158,3.4,3.4,44,0.00,,---,0.00,VWS V14.01,2013-03-08 22:33:00,
2013-03-08 15:38:00,61.3,38.7,29.79,WSW,248,6.3,6.3,43,0.00,,---,0.00,VWS V14.01,2013-03-08 22:38:00,
2013-03-08 15:43:00,60.8,38.2,29.79,SW,225,6.5,7.4,43,0.00,,---,0.00,VWS V14.01,2013-03-08 22:43:00,
2013-03-08 15:48:00,60.4,37.9,29.79,North,0,2.0,8.5,43,0.00,,---,0.00,VWS V14.01,2013-03-08 22:48:00,
2013-03-08 15:53:00,60.1,38.1,29.79,SE,135,3.6,3.6,44,0.00,,---,0.00,VWS V14.01,2013-03-08 22:53:00,
2013-03-08 15:58:00,60.1,38.1,29.79,SW,225,4.3,4.3,44,0.00,,---,0.00,VWS V14.01,2013-03-08 22:58:00,
2013-03-08 16:03:00,60.6,38.6,29.79,SW,225,5.4,5.4,44,0.00,,---,0.00,VWS V14.01,2013-03-08 23:03:00,
2013-03-08 16:08:00,61.0,38.9,29.79,SW,225,3.8,3.8,44,0.00,,---,0.00,VWS V14.01,2013-03-08 23:08:00,
2013-03-08 16:13:00,61.5,39.4,29.82,West,270,3.8,3.8,44,0.00,,---,0.00,VWS V14.01,2013-03-08 23:13:00,
2013-03-08 16:18:00,62.2,40.7,29.82,South,180,2.5,2.5,45,0.00,,---,0.00,VWS V14.01,2013-03-08 23:18:00,
2013-03-08 16:23:00,63.0,40.7,29.82,South,180,0.0,4.0,44,0.00,,---,0.00,VWS V14.01,2013-03-08 23:23:00,
2013-03-08 16:28:00,63.5,40.6,29.82,West,270,2.5,4.0,43,0.00,,---,0.00,VWS V14.01,2013-03-08 23:28:00,
2013-03-08 16:33:00,62.8,40.0,29.82,SSW,202,2.9,2.9,43,0.00,,---,0.00,VWS V14.01,2013-03-08 23:33:00,
2013-03-08 16:38:00,61.7,39.0,29.82,SSW,202,4.0,4.0,43,0.00,,---,0.00,VWS V14.01,2013-03-08 23:38:00,
2013-03-08 16:43:00,60.3,35.9,29.82,SW,225,3.6,4.0,40,0.00,,---,0.00,VWS V14.01,2013-03-08 23:43:00,
2013-03-08 16:48:00,58.8,35.8,29.82,SW,225,3.1,3.1,42,0.00,,---,0.00,VWS V14.01,2013-03-08 23:48:00,
2013-03-08 16:53:00,58.1,36.3,29.82,SW,225,5.6,6.9,44,0.00,,---,0.00,VWS V14.01,2013-03-08 23:53:00,
2013-03-08 16:58:00,57.4,36.2,29.82,SSW,202,1.6,1.6,45,0.00,,---,0.00,VWS V14.01,2013-03-08 23:58:00,
2013-03-08 17:03:00,56.8,36.8,29.82,WSW,248,5.6,5.6,47,0.00,,---,0.00,VWS V14.01,2013-03-09 00:03:00,
2013-03-08 17:09:00,56.5,37.6,29.82,West,270,8.5,8.5,49,0.00,,---,0.00,VWS V14.01,2013-03-09 00:09:00,
2013-03-08 17:14:00,56.7,37.7,29.82,SSW,202,4.3,4.3,49,0.00,,---,0.00,VWS V14.01,2013-03-09 00:14:00,
2013-03-08 17:19:00,57.2,37.2,29.82,SW,225,4.9,4.9,47,0.00,,---,0.00,VWS V14.01,2013-03-09 00:19:00,
2013-03-08 17:24:00,57.0,37.0,29.82,SW,225,1.6,3.4,47,0.00,,---,0.00,VWS V14.01,2013-03-09 00:24:00,
2013-03-08 17:29:00,56.8,36.3,29.85,SSW,202,3.8,3.8,46,0.00,,---,0.00,VWS V14.01,2013-03-09 00:29:00,
2013-03-08 17:34:00,56.7,36.1,29.85,WSW,248,0.0,3.4,46,0.00,,---,0.00,VWS V14.01,2013-03-09 00:34:00,
2013-03-08 17:39:00,56.5,36.0,29.85,WSW,248,5.6,5.6,46,0.00,,---,0.00,VWS V14.01,2013-03-09 00:39:00,
2013-03-08 17:44:00,56.1,35.6,29.82,WSW,248,2.7,2.7,46,0.00,,---,0.00,VWS V14.01,2013-03-09 00:44:00,
2013-03-08 17:49:00,56.1,35.6,29.82,SW,225,3.1,3.1,46,0.00,,---,0.00,VWS V14.01,2013-03-09 00:49:00,
2013-03-08 17:54:00,55.9,35.5,29.82,WSW,248,4.7,4.7,46,0.00,,---,0.00,VWS V14.01,2013-03-09 00:54:00,
2013-03-08 17:59:00,55.9,36.0,29.85,WSW,248,4.7,4.7,47,0.00,,---,0.00,VWS V14.01,2013-03-09 00:59:00,
2013-03-08 18:04:00,55.0,37.3,29.85,SW,225,1.1,1.1,51,0.00,,---,0.00,VWS V14.01,2013-03-09 01:04:00,
2013-03-08 18:10:00,54.1,37.4,29.85,NE,45,0.9,0.9,53,0.00,,---,0.00,VWS V14.01,2013-03-09 01:10:00,
2013-03-08 18:15:00,53.4,37.7,29.85,SSE,158,3.8,3.8,55,0.00,,---,0.00,VWS V14.01,2013-03-09 01:15:00,
2013-03-08 18:20:00,53.1,38.7,29.85,SW,225,4.7,4.7,58,0.00,,---,0.00,VWS V14.01,2013-03-09 01:20:00,
2013-03-08 18:25:00,52.0,38.5,29.85,WSW,248,0.0,0.0,60,0.00,,---,0.00,VWS V14.01,2013-03-09 01:25:00,
2013-03-08 18:30:00,51.6,38.6,29.85,WSW,248,2.0,2.0,61,0.00,,---,0.00,VWS V14.01,2013-03-09 01:30:00,
2013-03-08 18:35:00,51.1,38.1,29.85,SSW,202,0.0,0.0,61,0.00,,---,0.00,VWS V14.01,2013-03-09 01:35:00,
2013-03-08 18:40:00,50.7,38.6,29.85,WSW,248,0.9,0.9,63,0.00,,---,0.00,VWS V14.01,2013-03-09 01:40:00,
2013-03-08 18:45:00,50.4,38.7,29.85,WSW,248,0.0,0.0,64,0.00,,---,0.00,VWS V14.01,2013-03-09 01:45:00,
2013-03-08 18:50:00,50.2,37.3,29.85,SW,225,0.0,0.0,61,0.00,,---,0.00,VWS V14.01,2013-03-09 01:50:00,
2013-03-08 18:55:00,49.8,37.3,29.85,WSW,248,1.3,1.3,62,0.00,,---,0.00,VWS V14.01,2013-03-09 01:55:00,
2013-03-08 19:00:00,49.6,37.2,29.85,West,270,0.0,0.0,62,0.00,,---,0.00,VWS V14.01,2013-03-09 02:00:00,
2013-03-08 19:05:00,49.5,37.0,29.85,West,270,0.0,0.0,62,0.00,,---,0.00,VWS V14.01,2013-03-09 02:05:00,
2013-03-08 19:10:00,49.3,36.8,29.85,NW,315,0.0,0.0,62,0.00,,---,0.00,VWS V14.01,2013-03-09 02:10:00,
2013-03-08 19:15:00,49.1,36.7,29.85,SSE,158,0.0,0.0,62,0.00,,---,0.00,VWS V14.01,2013-03-09 02:15:00,
2013-03-08 19:20:00,49.1,36.7,29.85,SE,135,0.0,0.0,62,0.00,,---,0.00,VWS V14.01,2013-03-09 02:20:00,
2013-03-08 19:25:00,48.9,36.9,29.85,SE,135,0.0,0.0,63,0.00,,---,0.00,VWS V14.01,2013-03-09 02:25:00,
2013-03-08 19:30:00,48.9,36.9,29.88,SW,225,0.0,0.0,63,0.00,,---,0.00,VWS V14.01,2013-03-09 02:30:00,
2013-03-08 19:35:00,49.1,38.2,29.88,SW,225,0.0,0.0,66,0.00,,---,0.00,VWS V14.01,2013-03-09 02:35:00,
2013-03-08 19:41:00,49.3,38.4,29.88,SSW,202,0.9,0.9,66,0.00,,---,0.00,VWS V14.01,2013-03-09 02:41:00,
2013-03-08 19:46:00,49.3,39.2,29.88,WSW,248,4.7,4.7,68,0.00,,---,0.00,VWS V14.01,2013-03-09 02:46:00,
2013-03-08 19:51:00,48.7,39.0,29.88,SW,225,4.7,4.7,69,0.00,,---,0.00,VWS V14.01,2013-03-09 02:51:00,
2013-03-08 19:56:00,48.0,38.3,29.88,SE,135,0.0,3.1,69,0.00,,---,0.00,VWS V14.01,2013-03-09 02:56:00,
2013-03-08 20:01:00,47.7,38.4,29.88,WSW,248,0.0,0.0,70,0.00,,---,0.00,VWS V14.01,2013-03-09 03:01:00,
2013-03-08 20:06:00,47.5,38.6,29.88,South,180,6.5,6.5,71,0.00,,---,0.00,VWS V14.01,2013-03-09 03:06:00,
2013-03-08 20:11:00,47.3,38.4,29.88,WSW,248,5.8,8.7,71,0.00,,---,0.00,VWS V14.01,2013-03-09 03:11:00,
2013-03-08 20:16:00,47.1,38.2,29.91,SW,225,3.6,3.6,71,0.04,,---,0.04,VWS V14.01,2013-03-09 03:16:00,
2013-03-08 20:21:00,46.9,37.3,29.91,SSW,202,2.7,2.7,69,0.04,,---,0.04,VWS V14.01,2013-03-09 03:21:00,
2013-03-08 20:26:00,46.9,37.7,29.91,WSW,248,2.0,2.0,70,0.04,,---,0.04,VWS V14.01,2013-03-09 03:26:00,
2013-03-08 20:31:00,46.9,37.3,29.91,WSW,248,0.0,0.0,69,0.04,,---,0.04,VWS V14.01,2013-03-09 03:31:00,
2013-03-08 20:36:00,46.8,37.1,29.91,South,180,0.0,0.0,69,0.04,,---,0.04,VWS V14.01,2013-03-09 03:36:00,
2013-03-08 20:41:00,46.6,37.0,29.91,SW,225,0.0,0.0,69,0.04,,---,0.04,VWS V14.01,2013-03-09 03:41:00,
2013-03-08 20:47:00,46.6,37.0,29.91,SSW,202,0.0,0.0,69,0.04,,---,0.04,VWS V14.01,2013-03-09 03:47:00,
2013-03-08 20:52:00,46.8,37.5,29.91,SW,225,3.8,3.8,70,0.04,,---,0.04,VWS V14.01,2013-03-09 03:52:00,
2013-03-08 20:57:00,46.6,38.4,29.91,South,180,3.8,3.8,73,0.04,,---,0.04,VWS V14.01,2013-03-09 03:57:00,
2013-03-08 21:02:00,46.6,38.0,29.91,ESE,112,3.6,3.6,72,0.04,,---,0.04,VWS V14.01,2013-03-09 04:02:00,
2013-03-08 21:07:00,46.6,38.0,29.91,South,180,0.0,2.5,72,0.04,,---,0.04,VWS V14.01,2013-03-09 04:07:00,
2013-03-08 21:12:00,46.6,38.0,29.91,SW,225,0.0,2.9,72,0.04,,---,0.04,VWS V14.01,2013-03-09 04:12:00,
2013-03-08 21:17:00,46.4,37.5,29.91,SE,135,2.0,2.5,71,0.00,,---,0.04,VWS V14.01,2013-03-09 04:17:00,
2013-03-08 21:22:00,46.2,37.3,29.91,WSW,248,0.0,3.1,71,0.00,,---,0.04,VWS V14.01,2013-03-09 04:22:00,
2013-03-08 21:27:00,46.2,37.3,29.91,SW,225,2.9,2.9,71,0.00,,---,0.04,VWS V14.01,2013-03-09 04:27:00,
2013-03-08 21:32:00,46.0,37.2,29.91,WSW,248,4.0,4.0,71,0.00,,---,0.04,VWS V14.01,2013-03-09 04:32:00,
2013-03-08 21:37:00,46.2,37.7,29.91,WSW,248,2.5,2.9,72,0.00,,---,0.04,VWS V14.01,2013-03-09 04:37:00,
2013-03-08 21:42:00,46.2,37.7,29.94,SW,225,2.9,2.9,72,0.00,,---,0.04,VWS V14.01,2013-03-09 04:42:00,
2013-03-08 21:47:00,46.0,37.5,29.94,NNE,22,5.6,5.6,72,0.00,,---,0.04,VWS V14.01,2013-03-09 04:47:00,
2013-03-08 21:52:00,45.7,37.2,29.94,West,270,0.9,3.1,72,0.00,,---,0.04,VWS V14.01,2013-03-09 04:52:00,
2013-03-08 21:57:00,45.3,36.5,29.94,SW,225,2.2,2.2,71,0.00,,---,0.04,VWS V14.01,2013-03-09 04:57:00,
2013-03-08 22:00:00,45.3,36.1,29.94,WSW,248,0.0,0.0,70,0.00,,---,0.04,VWS V14.01,2013-03-09 05:00:00,
2013-03-08 22:01:00,45.1,36.3,29.94,NW,315,0.0,0.0,71,0.00,,---,0.04,VWS V14.01,2013-03-09 05:01:00,
2013-03-08 22:06:00,44.8,36.0,29.94,NW,315,0.0,0.0,71,0.00,,---,0.04,VWS V14.01,2013-03-09 05:06:00,
2013-03-08 22:11:00,44.8,36.0,29.94,NW,315,0.0,0.0,71,0.00,,---,0.04,VWS V14.01,2013-03-09 05:11:00,
2013-03-08 22:16:00,44.4,35.6,29.94,NE,45,0.0,0.0,71,0.00,,---,0.04,VWS V14.01,2013-03-09 05:16:00,
2013-03-08 22:21:00,44.1,34.9,29.94,ESE,112,0.0,0.0,70,0.00,,---,0.04,VWS V14.01,2013-03-09 05:21:00,
2013-03-08 22:27:00,43.9,34.7,29.94,ESE,112,0.0,0.0,70,0.00,,---,0.04,VWS V14.01,2013-03-09 05:27:00,
2013-03-08 22:32:00,43.5,34.4,29.94,ESE,112,1.3,1.3,70,0.00,,---,0.04,VWS V14.01,2013-03-09 05:32:00,
2013-03-08 22:37:00,43.3,34.2,29.94,ESE,112,0.0,0.0,70,0.00,,---,0.04,VWS V14.01,2013-03-09 05:37:00,
2013-03-08 22:42:00,43.3,34.6,29.94,ESE,112,0.0,0.0,71,0.00,,---,0.04,VWS V14.01,2013-03-09 05:42:00,
2013-03-08 22:47:00,43.2,34.4,29.94,ESE,112,0.0,0.0,71,0.00,,---,0.04,VWS V14.01,2013-03-09 05:47:00,
2013-03-08 22:52:00,43.0,34.2,29.94,ESE,112,0.0,0.0,71,0.00,,---,0.04,VWS V14.01,2013-03-09 05:52:00,
2013-03-08 22:57:00,42.8,34.1,29.94,ESE,112,0.0,0.0,71,0.00,,---,0.04,VWS V14.01,2013-03-09 05:57:00,
2013-03-08 23:02:00,42.6,34.6,29.94,ESE,112,0.0,0.0,73,0.00,,---,0.04,VWS V14.01,2013-03-09 06:02:00,
2013-03-08 23:07:00,42.4,34.1,29.94,ESE,112,0.0,0.0,72,0.00,,---,0.04,VWS V14.01,2013-03-09 06:07:00,
2013-03-08 23:12:00,42.3,33.9,29.94,ESE,112,0.0,0.0,72,0.00,,---,0.04,VWS V14.01,2013-03-09 06:12:00,
2013-03-08 23:17:00,42.3,33.9,29.94,ESE,112,0.0,0.0,72,0.00,,---,0.04,VWS V14.01,2013-03-09 06:17:00,
2013-03-08 23:22:00,42.3,34.2,29.94,ESE,112,0.0,0.0,73,0.00,,---,0.04,VWS V14.01,2013-03-09 06:22:00,
2013-03-08 23:27:00,42.3,34.2,29.94,ESE,112,0.0,0.0,73,0.00,,---,0.04,VWS V14.01,2013-03-09 06:27:00,
2013-03-08 23:33:00,42.3,33.9,29.94,ESE,112,0.0,0.0,72,0.00,,---,0.04,VWS V14.01,2013-03-09 06:33:00,
2013-03-08 23:38:00,42.3,34.6,29.94,ESE,112,0.0,0.0,74,0.00,,---,0.04,VWS V14.01,2013-03-09 06:38:00,
2013-03-08 23:43:00,42.4,34.8,29.94,ESE,112,0.0,0.0,74,0.00,,---,0.04,VWS V14.01,2013-03-09 06:43:00,
2013-03-08 23:48:00,43.0,35.6,29.94,ENE,68,0.0,0.0,75,0.00,,---,0.04,VWS V14.01,2013-03-09 06:48:00,
2013-03-08 23:53:00,43.2,35.8,29.94,ENE,68,0.0,0.0,75,0.00,,---,0.04,VWS V14.01,2013-03-09 06:53:00,
2013-03-08 23:58:00,43.3,35.6,29.94,ENE,68,0.0,0.0,74,0.00,,---,0.04,VWS V14.01,2013-03-09 06:58:00,